Time;durP1;ratioP1;P1;durP2;ratioP2;P2;SDS_P1;SDS_P2;PMS_P1;PMS_P2;Temp;Humidity;BMP_temperature;BMP_pressure;BME280_temperature;BME280_humidity;BME280_pressure;Samples;Min_cycle;Max_cycle;Signal;HPM_P1;HPM_P2
2022/02/03 00:00:23;;;;;;;23.13;16.65;;;;;;;;;;5038040;28;20057;-82
2022/02/03 00:02:56;;;;;;;26.48;18.27;;;;;;;;;;5034167;28;20029;-88
2022/02/03 00:05:33;;;;;;;27.13;18.88;;;;;;;;;;5028720;28;20021;-80
2022/02/03 00:24:13;;;;;;;32.25;21.15;;;;;;;;;;5049688;28;20117;-82
2022/02/03 00:26:46;;;;;;;30.67;20.45;;;;;;;;;;5033831;28;20037;-81
2022/02/03 00:29:26;;;;;;;30.50;20.55;;;;;;;;;;5033775;28;20031;-82
2022/02/03 00:32:07;;;;;;;33.00;21.98;;;;;;;;;;5034284;28;20478;-81
2022/02/03 00:35:18;;;;;;;33.17;22.50;;;;;;;;;;5045956;28;20487;-86
2022/02/03 00:37:33;;;;;;;33.88;21.13;;;;;;;;;;5049164;28;20037;-80
2022/02/03 00:48:20;;;;;;;34.28;22.77;;;;;;;;;;5048858;28;20035;-80
2022/02/03 00:50:48;;;;;;;33.35;23.38;;;;;;;;;;5030133;28;20037;-88
2022/02/03 00:53:15;;;;;;;36.15;24.63;;;;;;;;;;5029970;28;20020;-80
2022/02/03 00:55:43;;;;;;;35.90;22.80;;;;;;;;;;5027371;28;20048;-81
2022/02/03 00:58:11;;;;;;;35.53;24.30;;;;;;;;;;5043675;28;20112;-80
2022/02/03 01:00:38;;;;;;;35.05;23.00;;;;;;;;;;5049403;28;20041;-81
2022/02/03 01:03:11;;;;;;;35.80;24.73;;;;;;;;;;5029147;28;20056;-80
2022/02/03 01:05:39;;;;;;;;;;;;;;;;;;5026064;28;20052;-80
2022/02/03 01:08:15;;;;;;;34.78;23.08;;;;;;;;;;5046107;28;20012;-89
2022/02/03 01:10:48;;;;;;;35.22;23.35;;;;;;;;;;5033730;28;20021;-82
2022/02/03 01:13:28;;;;;;;34.13;22.73;;;;;;;;;;5033792;28;20044;-88
2022/02/03 01:16:06;;;;;;;36.65;24.33;;;;;;;;;;5032413;28;20052;-88
2022/02/03 01:35:10;;;;;;;40.90;24.80;;;;;;;;;;5045565;28;20571;-81
2022/02/03 01:43:15;;;;;;;38.10;25.35;;;;;;;;;;5040694;28;20029;-81
2022/02/03 01:43:44;;;;;;;41.63;24.27;;;;;;;;;;5045818;28;20051;-87
2022/02/03 01:46:15;;;;;;;40.47;25.48;;;;;;;;;;5048520;28;20461;-88
2022/02/03 01:54:04;;;;;;;43.70;26.25;;;;;;;;;;5044245;28;20098;-82
2022/02/03 01:56:39;;;;;;;44.40;27.63;;;;;;;;;;5042228;28;20178;-82
2022/02/03 01:59:19;;;;;;;39.85;26.13;;;;;;;;;;5042803;28;20428;-80
2022/02/03 02:01:46;;;;;;;42.10;25.80;;;;;;;;;;5026216;28;20033;-81
2022/02/03 02:04:40;;;;;;;41.38;25.40;;;;;;;;;;5026068;28;20032;-82
2022/02/03 02:07:43;;;;;;;43.40;24.80;;;;;;;;;;5028831;28;20124;-88
2022/02/03 02:10:36;;;;;;;42.50;25.73;;;;;;;;;;5026904;28;20025;-80
2022/02/03 02:14:27;;;;;;;41.42;24.23;;;;;;;;;;5024965;28;20033;-80
2022/02/03 02:19:41;;;;;;;41.38;22.75;;;;;;;;;;5036018;28;20559;-80
2022/02/03 02:39:22;;;;;;;35.55;20.75;;;;;;;;;;5030561;28;20551;-82
2022/02/03 02:45:10;;;;;;;35.55;21.05;;;;;;;;;;5024995;28;20767;-80
2022/02/03 02:48:09;;;;;;;35.60;21.25;;;;;;;;;;5012722;28;20036;-81
2022/02/03 02:51:03;;;;;;;35.03;20.25;;;;;;;;;;5019539;28;20037;-80
2022/02/03 02:56:32;;;;;;;30.92;19.02;;;;;;;;;;5031818;28;20080;-81
2022/02/03 02:59:33;;;;;;;28.70;18.40;;;;;;;;;;5030398;28;20052;-81
2022/02/03 03:03:24;;;;;;;27.92;17.92;;;;;;;;;;5011284;28;20114;-87
2022/02/03 03:35:37;;;;;;;31.10;16.75;;;;;;;;;;5041759;28;20029;-88
2022/02/03 03:38:05;;;;;;;28.38;16.95;;;;;;;;;;5027940;28;20032;-80
2022/02/03 03:40:33;;;;;;;29.58;18.25;;;;;;;;;;5041752;28;20029;-82
2022/02/03 03:43:07;;;;;;;24.38;15.15;;;;;;;;;;5025506;28;20055;-81
2022/02/03 03:45:34;;;;;;;22.80;14.23;;;;;;;;;;5023574;28;20060;-81
2022/02/03 03:48:02;;;;;;;24.88;14.85;;;;;;;;;;5026698;28;20390;-87
2022/02/03 03:50:33;;;;;;;24.95;14.95;;;;;;;;;;5032611;28;20119;-80
2022/02/03 03:53:08;;;;;;;24.90;14.45;;;;;;;;;;5031321;28;20054;-82
2022/02/03 03:55:46;;;;;;;23.30;14.65;;;;;;;;;;5045458;28;20043;-82
2022/02/03 04:36:53;;;;;;;19.80;11.90;;;;;;;;;;5050528;28;20029;-80
2022/02/03 05:05:51;;;;;;;18.98;10.70;;;;;;;;;;5044937;28;20034;-81
2022/02/03 05:12:15;;;;;;;19.42;11.32;;;;;;;;;;5039833;28;20041;-82
2022/02/03 05:15:08;;;;;;;15.52;10.85;;;;;;;;;;5041455;28;20040;-80
2022/02/03 05:18:00;;;;;;;14.93;9.15;;;;;;;;;;5046018;28;20090;-80
2022/02/03 05:21:22;;;;;;;15.52;8.52;;;;;;;;;;5043344;28;20516;-88
2022/02/03 05:31:57;;;;;;;13.48;8.15;;;;;;;;;;5044314;28;20499;-80
2022/02/03 05:45:55;;;;;;;9.88;5.57;;;;;;;;;;5038319;28;20033;-80
2022/02/03 06:14:31;;;;;;;8.93;3.10;;;;;;;;;;5046545;28;20074;-82
2022/02/03 06:27:36;;;;;;;6.85;2.88;;;;;;;;;;5027960;28;20115;-86
2022/02/03 06:30:02;;;;;;;11.32;2.92;;;;;;;;;;5007558;28;20474;-80
2022/02/03 06:32:27;;;;;;;8.20;2.65;;;;;;;;;;5024291;28;20173;-82
2022/02/03 06:34:53;;;;;;;5.53;2.88;;;;;;;;;;5007071;28;20601;-85
2022/02/03 06:37:19;;;;;;;6.20;3.05;;;;;;;;;;5022825;28;20033;-82
2022/02/03 06:39:44;;;;;;;6.80;2.90;;;;;;;;;;5015810;28;20060;-82
2022/02/03 06:42:10;;;;;;;7.95;3.17;;;;;;;;;;5002568;28;20112;-80
2022/02/03 06:44:44;;;;;;;7.75;3.90;;;;;;;;;;5013975;28;20033;-81
2022/02/03 06:47:19;;;;;;;7.85;3.50;;;;;;;;;;5018249;28;20025;-80
2022/02/03 06:49:59;;;;;;;7.53;3.53;;;;;;;;;;5016361;28;20488;-86
2022/02/03 06:53:01;;;;;;;9.50;3.90;;;;;;;;;;5000568;28;20505;-82
2022/02/03 06:58:08;;;;;;;8.32;3.80;;;;;;;;;;5020920;28;20037;-80
2022/02/03 07:00:38;;;;;;;11.27;4.63;;;;;;;;;;5005835;28;20082;-80
2022/02/03 07:03:11;;;;;;;8.55;4.65;;;;;;;;;;5027780;28;20040;-87
2022/02/03 07:05:36;;;;;;;8.60;4.47;;;;;;;;;;5006563;28;20037;-87
2022/02/03 07:08:01;;;;;;;11.48;5.30;;;;;;;;;;5006892;28;20766;-81
2022/02/03 07:10:27;;;;;;;7.40;4.55;;;;;;;;;;5007969;28;20029;-81
2022/02/03 07:12:52;;;;;;;10.07;5.07;;;;;;;;;;5004582;28;20037;-82
2022/02/03 07:15:17;;;;;;;11.20;5.35;;;;;;;;;;5013272;28;20121;-82
2022/02/03 07:17:44;;;;;;;12.75;5.88;;;;;;;;;;4994834;28;20160;-80
2022/02/03 07:20:13;;;;;;;11.60;5.45;;;;;;;;;;5010357;28;20116;-84
2022/02/03 07:22:41;;;;;;;9.75;5.32;;;;;;;;;;5030778;28;20045;-82
2022/02/03 07:25:06;;;;;;;11.90;5.97;;;;;;;;;;5019313;28;20080;-82
2022/02/03 07:27:31;;;;;;;15.90;6.43;;;;;;;;;;5029489;28;20041;-84
2022/02/03 07:29:58;;;;;;;10.75;5.53;;;;;;;;;;5017351;28;20722;-82
2022/02/03 07:32:24;;;;;;;10.77;5.70;;;;;;;;;;5023480;28;20481;-81
2022/02/03 07:34:52;;;;;;;14.85;6.57;;;;;;;;;;5015844;28;20153;-87
2022/02/03 07:37:18;;;;;;;11.15;6.38;;;;;;;;;;5018236;28;20036;-81
2022/02/03 07:39:45;;;;;;;10.18;5.88;;;;;;;;;;5019627;28;20029;-82
2022/02/03 07:42:12;;;;;;;9.55;6.15;;;;;;;;;;5021021;28;20128;-82
2022/02/03 07:44:37;;;;;;;11.57;6.28;;;;;;;;;;5016557;28;20072;-81
2022/02/03 07:47:03;;;;;;;10.43;6.00;;;;;;;;;;5018187;28;20594;-81
2022/02/03 07:49:30;;;;;;;12.60;5.95;;;;;;;;;;5023328;28;20060;-86
2022/02/03 07:51:57;;;;;;;11.57;7.13;;;;;;;;;;5025924;28;20112;-81
2022/02/03 07:54:22;;;;;;;13.32;6.70;;;;;;;;;;5021481;28;20053;-87
2022/02/03 07:56:48;;;;;;;12.70;6.20;;;;;;;;;;5018411;28;20029;-84
2022/02/03 07:59:13;;;;;;;11.73;6.40;;;;;;;;;;5015260;28;20037;-82
2022/02/03 08:01:38;;;;;;;12.73;6.38;;;;;;;;;;5021984;28;20033;-86
2022/02/03 08:04:06;;;;;;;12.23;6.50;;;;;;;;;;5018669;28;20025;-82
2022/02/03 08:06:36;;;;;;;11.35;6.43;;;;;;;;;;5016510;28;20494;-82
2022/02/03 08:09:09;;;;;;;10.50;6.10;;;;;;;;;;5025841;28;20029;-85
2022/02/03 08:11:41;;;;;;;10.98;6.80;;;;;;;;;;5017954;28;21206;-81
2022/02/03 08:14:17;;;;;;;12.65;6.65;;;;;;;;;;5021343;28;21056;-86
2022/02/03 08:16:57;;;;;;;15.27;7.05;;;;;;;;;;5020423;28;20079;-81
2022/02/03 08:21:57;;;;;;;12.45;6.78;;;;;;;;;;5019704;28;20108;-82
2022/02/03 08:24:26;;;;;;;11.27;6.50;;;;;;;;;;5015887;28;20029;-86
2022/02/03 08:27:05;;;;;;;14.25;6.60;;;;;;;;;;5016874;28;20044;-82
2022/02/03 08:32:11;;;;;;;12.75;6.82;;;;;;;;;;5027865;28;20037;-86
2022/02/03 08:34:47;;;;;;;14.43;7.00;;;;;;;;;;5003595;28;20038;-82
2022/02/03 08:37:14;;;;;;;16.50;7.10;;;;;;;;;;5018038;28;20025;-86
2022/02/03 08:39:52;;;;;;;13.30;6.90;;;;;;;;;;5014196;28;20763;-87
2022/02/03 08:42:18;;;;;;;14.95;6.88;;;;;;;;;;5020269;28;20405;-82
2022/02/03 08:44:44;;;;;;;14.50;7.50;;;;;;;;;;5017751;28;20025;-86
2022/02/03 08:47:09;;;;;;;14.23;7.35;;;;;;;;;;5025348;28;20047;-80
2022/02/03 08:49:38;;;;;;;12.75;7.30;;;;;;;;;;5014785;28;20061;-82
2022/02/03 08:52:09;;;;;;;12.20;7.15;;;;;;;;;;5025554;28;20402;-86
2022/02/03 08:54:37;;;;;;;17.30;8.00;;;;;;;;;;5002132;28;20038;-84
2022/02/03 08:57:16;;;;;;;13.77;6.75;;;;;;;;;;5014790;28;20131;-82
2022/02/03 09:38:00;;;;;;;13.52;8.20;;;;;;;;;;5026362;28;20044;-82
2022/02/03 09:40:54;;;;;;;12.23;7.32;;;;;;;;;;5016050;28;20033;-83
2022/02/03 09:52:21;;;;;;;12.57;6.28;;;;;;;;;;5017515;28;20087;-84
2022/02/03 09:59:49;;;;;;;13.75;6.35;;;;;;;;;;5018198;28;20029;-82
2022/02/03 10:02:22;;;;;;;12.48;6.72;;;;;;;;;;5004125;28;20108;-81
2022/02/03 10:04:54;;;;;;;13.20;6.60;;;;;;;;;;5017108;28;20164;-82
2022/02/03 10:07:24;;;;;;;11.13;6.20;;;;;;;;;;5000279;28;20115;-82
2022/02/03 10:09:52;;;;;;;12.18;6.18;;;;;;;;;;5018819;28;20672;-81
2022/02/03 10:12:18;;;;;;;12.68;5.97;;;;;;;;;;5002075;28;20038;-82
2022/02/03 10:14:47;;;;;;;11.73;6.35;;;;;;;;;;5006132;28;20124;-82
2022/02/03 10:17:18;;;;;;;14.13;6.20;;;;;;;;;;4997665;28;20525;-85
2022/02/03 10:19:49;;;;;;;13.82;6.05;;;;;;;;;;5016202;28;20493;-81
2022/02/03 10:22:22;;;;;;;11.95;6.07;;;;;;;;;;5017914;28;20048;-82
2022/02/03 10:24:50;;;;;;;13.00;6.13;;;;;;;;;;5021318;28;20501;-83
2022/02/03 10:27:29;;;;;;;10.68;5.35;;;;;;;;;;5021255;28;20032;-81
2022/02/03 10:30:20;;;;;;;11.10;5.68;;;;;;;;;;5019074;28;20025;-82
2022/02/03 10:32:46;;;;;;;17.17;6.03;;;;;;;;;;5016379;28;20110;-82
2022/02/03 10:35:21;;;;;;;11.07;5.28;;;;;;;;;;5022742;28;20493;-82
2022/02/03 10:38:05;;;;;;;12.05;5.07;;;;;;;;;;5023930;28;20034;-85
2022/02/03 10:49:41;;;;;;;13.02;6.25;;;;;;;;;;5039680;28;20036;-82
2022/02/03 10:54:51;;;;;;;12.05;6.07;;;;;;;;;;5039293;28;20093;-80
2022/02/03 11:07:47;;;;;;;13.93;7.20;;;;;;;;;;5012998;28;20083;-82
2022/02/03 11:12:45;;;;;;;18.52;6.90;;;;;;;;;;5040694;28;20500;-83
2022/02/03 11:15:11;;;;;;;13.35;7.15;;;;;;;;;;5042528;28;20184;-81
2022/02/03 11:17:37;;;;;;;15.00;7.10;;;;;;;;;;5024149;28;20074;-82
2022/02/03 11:20:08;;;;;;;14.20;7.47;;;;;;;;;;5027301;28;20860;-82
2022/02/03 11:22:47;;;;;;;17.20;7.78;;;;;;;;;;5024876;28;20048;-81
2022/02/03 11:25:25;;;;;;;13.48;6.65;;;;;;;;;;5030463;28;20036;-84
2022/02/03 11:28:14;;;;;;;13.05;7.05;;;;;;;;;;5043317;28;20028;-87
2022/02/03 11:36:52;;;;;;;18.77;10.40;;;;;;;;;;5045935;28;20495;-85
2022/02/03 11:42:27;;;;;;;12.35;6.82;;;;;;;;;;5049398;28;20090;-80
2022/02/03 11:45:38;;;;;;;12.80;6.75;;;;;;;;;;5044133;28;20031;-82
2022/02/03 11:48:23;;;;;;;13.48;6.97;;;;;;;;;;5035157;28;20036;-80
2022/02/03 12:00:12;;;;;;;13.68;6.78;;;;;;;;;;4998687;28;20124;-83
2022/02/03 12:11:42;;;;;;;11.05;6.25;;;;;;;;;;5043564;28;20056;-80
2022/02/03 12:14:42;;;;;;;12.05;5.70;;;;;;;;;;5037910;28;20037;-80
2022/02/03 12:17:34;;;;;;;13.68;5.60;;;;;;;;;;5040490;28;20599;-83
2022/02/03 12:20:11;;;;;;;9.45;5.70;;;;;;;;;;5023503;28;20045;-85
2022/02/03 12:25:58;;;;;;;;;;;;;;;;;;4984599;28;20162;-85
2022/02/03 12:31:26;;;;;;;11.43;5.68;;;;;;;;;;5040907;28;20032;-85
2022/02/03 12:42:45;;;;;;;9.90;5.50;;;;;;;;;;4960344;28;20041;-84
2022/02/03 12:47:42;;;;;;;11.90;6.10;;;;;;;;;;5044650;28;20044;-82
2022/02/03 12:50:25;;;;;;;12.30;5.72;;;;;;;;;;5024302;28;20486;-82
2022/02/03 12:52:51;;;;;;;14.00;5.80;;;;;;;;;;5038134;28;20521;-82
2022/02/03 12:55:22;;;;;;;11.32;5.97;;;;;;;;;;5025740;28;20635;-81
2022/02/03 12:57:51;;;;;;;15.02;5.90;;;;;;;;;;5027951;28;20033;-83
2022/02/03 13:00:26;;;;;;;9.02;5.45;;;;;;;;;;5041483;28;20090;-82
2022/02/03 13:02:58;;;;;;;11.18;5.28;;;;;;;;;;5027734;28;20031;-80
2022/02/03 13:05:27;;;;;;;9.43;5.65;;;;;;;;;;5028076;28;20048;-82
2022/02/03 13:07:54;;;;;;;15.00;6.10;;;;;;;;;;5026507;28;20099;-82
2022/02/03 13:10:25;;;;;;;10.90;6.25;;;;;;;;;;5023025;28;20091;-80
2022/02/03 13:13:01;;;;;;;10.93;6.43;;;;;;;;;;5025260;28;20052;-82
2022/02/03 13:15:40;;;;;;;8.88;6.05;;;;;;;;;;5023947;28;20393;-80
2022/02/03 13:18:12;;;;;;;9.82;6.82;;;;;;;;;;5031840;28;20071;-82
2022/02/03 13:23:40;;;;;;;14.60;6.80;;;;;;;;;;4989643;28;20501;-81
2022/02/03 13:28:44;;;;;;;13.45;6.75;;;;;;;;;;5037013;28;20507;-81
2022/02/03 13:31:41;;;;;;;11.10;6.75;;;;;;;;;;5021459;28;20770;-85
2022/02/03 13:34:38;;;;;;;9.68;6.25;;;;;;;;;;5039639;28;20041;-81
2022/02/03 13:36:57;;;;;;;10.52;6.38;;;;;;;;;;5040777;28;20048;-82
2022/02/03 13:39:26;;;;;;;17.55;8.05;;;;;;;;;;5023856;28;20033;-85
2022/02/03 13:42:21;;;;;;;11.30;7.43;;;;;;;;;;5026431;28;20733;-85
2022/02/03 13:44:46;;;;;;;9.80;6.80;;;;;;;;;;5014014;28;20043;-83
2022/02/03 13:47:34;;;;;;;13.15;7.00;;;;;;;;;;5028917;28;20025;-87
2022/02/03 13:50:26;;;;;;;15.27;7.78;;;;;;;;;;5020683;28;20521;-82
2022/02/03 13:53:20;;;;;;;19.23;7.43;;;;;;;;;;5024885;28;20059;-81
2022/02/03 14:18:17;;;;;;;14.85;8.23;;;;;;;;;;5043165;28;20083;-82
2022/02/03 14:21:00;;;;;;;15.68;7.82;;;;;;;;;;5024291;28;20168;-82
2022/02/03 14:29:23;;;;;;;16.00;8.10;;;;;;;;;;5041601;28;20039;-83
2022/02/03 14:32:05;;;;;;;11.73;7.85;;;;;;;;;;5039766;28;20033;-82
2022/02/03 14:34:33;;;;;;;14.45;7.93;;;;;;;;;;5019328;28;20401;-83
2022/02/03 14:42:34;;;;;;;14.40;7.68;;;;;;;;;;5043810;28;19917;-81
2022/02/03 14:44:59;;;;;;;11.93;7.90;;;;;;;;;;5041577;28;20047;-82
2022/02/03 14:47:28;;;;;;;14.70;7.95;;;;;;;;;;5026980;28;20036;-82
2022/02/03 14:49:54;;;;;;;16.35;8.18;;;;;;;;;;5025953;28;20405;-86
2022/02/03 14:52:27;;;;;;;10.77;7.75;;;;;;;;;;5022735;28;20029;-82
2022/02/03 15:00:23;;;;;;;13.43;7.43;;;;;;;;;;5034529;28;20036;-87
2022/02/03 15:02:49;;;;;;;12.85;7.70;;;;;;;;;;5045792;28;20020;-81
2022/02/03 15:05:23;;;;;;;11.88;7.68;;;;;;;;;;5038455;28;20060;-82
2022/02/03 15:07:55;;;;;;;16.33;8.38;;;;;;;;;;5025265;28;20025;-87
2022/02/03 15:13:33;;;;;;;12.40;7.50;;;;;;;;;;5039455;28;20116;-82
2022/02/03 15:16:03;;;;;;;14.68;7.63;;;;;;;;;;5026182;28;20037;-80
2022/02/03 15:18:31;;;;;;;13.48;7.85;;;;;;;;;;5022534;28;20045;-86
2022/02/03 15:20:59;;;;;;;11.25;7.57;;;;;;;;;;5008921;28;20041;-86
2022/02/03 15:23:42;;;;;;;14.00;8.73;;;;;;;;;;5007227;28;20044;-82
2022/02/03 15:26:11;;;;;;;12.90;8.45;;;;;;;;;;5010080;28;20578;-82
2022/02/03 15:28:47;;;;;;;12.88;8.20;;;;;;;;;;5009933;28;20029;-80
2022/02/03 15:31:13;;;;;;;12.40;8.45;;;;;;;;;;5009633;28;20053;-80
2022/02/03 15:33:52;;;;;;;17.58;8.77;;;;;;;;;;5010584;28;20036;-81
2022/02/03 15:39:19;;;;;;;14.73;8.43;;;;;;;;;;5027533;28;20060;-84
2022/02/03 15:41:47;;;;;;;16.20;8.98;;;;;;;;;;5012202;28;20025;-83
2022/02/03 15:44:18;;;;;;;14.30;9.05;;;;;;;;;;5012248;28;20075;-85
2022/02/03 15:46:58;;;;;;;14.25;8.48;;;;;;;;;;5014253;28;20021;-80
2022/02/03 16:17:51;;;;;;;15.15;9.50;;;;;;;;;;5029647;28;20118;-82
2022/02/03 16:20:26;;;;;;;17.00;10.57;;;;;;;;;;5015872;28;20041;-82
2022/02/03 16:43:54;;;;;;;18.60;12.55;;;;;;;;;;5026313;28;20040;-87
2022/02/03 16:54:59;;;;;;;18.88;13.23;;;;;;;;;;5029012;28;20041;-82
2022/02/03 16:57:28;;;;;;;19.77;13.02;;;;;;;;;;5010443;28;20037;-82
2022/02/03 17:00:04;;;;;;;21.25;12.90;;;;;;;;;;5013255;28;20020;-82
2022/02/03 17:02:30;;;;;;;20.30;13.80;;;;;;;;;;5031862;28;20112;-83
2022/02/03 17:04:59;;;;;;;21.67;13.52;;;;;;;;;;5010418;28;20109;-81
2022/02/03 17:07:27;;;;;;;20.65;14.00;;;;;;;;;;5008944;28;20022;-83
2022/02/03 17:09:59;;;;;;;21.45;14.20;;;;;;;;;;5012905;28;20033;-83
2022/02/03 17:12:27;;;;;;;22.17;14.68;;;;;;;;;;5013434;28;20040;-87
2022/02/03 17:14:59;;;;;;;23.02;14.93;;;;;;;;;;5007388;23;20065;-87
2022/02/03 17:17:31;;;;;;;22.55;15.35;;;;;;;;;;5003234;28;20022;-82
2022/02/03 17:20:00;;;;;;;25.65;16.15;;;;;;;;;;4984944;28;20085;-87
2022/02/03 17:22:37;;;;;;;23.05;15.32;;;;;;;;;;4986101;28;20022;-87
2022/02/03 17:25:09;;;;;;;24.77;16.08;;;;;;;;;;4989352;28;20026;-86
2022/02/03 17:30:41;;;;;;;25.10;15.30;;;;;;;;;;4983652;28;20045;-83
2022/02/03 18:45:47;;;;;;;25.17;15.18;;;;;;;;;;4980951;28;20534;-83
2022/02/03 20:10:26;;;;;;;35.47;20.10;;;;;;;;;;4949985;28;20041;-85
2022/02/03 20:13:02;;;;;;;30.70;19.42;;;;;;;;;;4917260;28;20499;-85
2022/02/03 20:15:42;;;;;;;;;;;;;;;;;;;;;
2022/02/03 20:18:32;;;;;;;34.33;20.63;;;;;;;;;;4913588;29;20043;-90
2022/02/03 20:20:57;;;;;;;32.80;19.55;;;;;;;;;;4905215;29;20068;-83
2022/02/03 20:23:42;;;;;;;;;;;;;;;;;;;;;
2022/02/03 20:26:30;;;;;;;34.75;19.77;;;;;;;;;;4855388;29;20442;-88
2022/02/03 20:32:13;;;;;;;;;;;;;;;;;;;;;
2022/02/03 20:35:00;;;;;;;33.90;20.58;;;;;;;;;;4906853;29;20699;-82
2022/02/03 20:37:32;;;;;;;35.13;21.08;;;;;;;;;;4898628;29;20028;-86
2022/02/03 20:40:33;;;;;;;39.78;22.67;;;;;;;;;;4913266;29;20119;-82
2022/02/03 20:43:33;;;;;;;33.63;19.85;;;;;;;;;;4891251;29;20139;-82
2022/02/03 20:46:02;;;;;;;36.45;20.38;;;;;;;;;;4889723;29;20037;-84
2022/02/03 20:48:33;;;;;;;33.35;21.15;;;;;;;;;;4877782;29;20095;-84
2022/02/03 20:54:04;;;;;;;31.35;20.17;;;;;;;;;;4842709;29;20116;-83
2022/02/03 21:06:35;;;;;;;31.15;20.05;;;;;;;;;;4853448;29;20044;-84
2022/02/03 21:09:01;;;;;;;33.60;19.63;;;;;;;;;;4848536;29;20053;-87
2022/02/03 21:11:26;;;;;;;38.40;23.15;;;;;;;;;;4874640;29;20480;-88
2022/02/03 21:14:02;;;;;;;36.50;21.20;;;;;;;;;;4947792;28;20039;-88
2022/02/03 21:16:38;;;;;;;34.80;21.05;;;;;;;;;;4938628;28;20516;-86
2022/02/03 21:19:04;;;;;;;34.97;19.75;;;;;;;;;;5026239;28;20458;-82
2022/02/03 21:21:30;;;;;;;34.25;20.42;;;;;;;;;;5025721;28;20064;-87
2022/02/03 21:23:56;;;;;;;31.05;20.70;;;;;;;;;;5027277;28;20026;-83
2022/02/03 21:26:31;;;;;;;34.40;21.27;;;;;;;;;;5006862;28;20390;-82
2022/02/03 21:29:11;;;;;;;32.95;20.35;;;;;;;;;;5023983;28;20036;-86
2022/02/03 21:31:37;;;;;;;31.92;20.77;;;;;;;;;;5023637;28;20033;-82
2022/02/03 21:34:03;;;;;;;36.15;21.70;;;;;;;;;;5019015;28;20048;-83
2022/02/03 21:36:35;;;;;;;34.17;21.42;;;;;;;;;;5025328;28;20409;-87
2022/02/03 21:39:13;;;;;;;33.03;20.52;;;;;;;;;;5022645;28;20274;-88
2022/02/03 21:41:38;;;;;;;32.63;20.83;;;;;;;;;;5022697;28;20469;-83
2022/02/03 21:44:15;;;;;;;33.90;20.73;;;;;;;;;;5020240;28;20022;-87
2022/02/03 21:46:44;;;;;;;30.25;20.25;;;;;;;;;;5024888;28;20052;-89
2022/02/03 21:49:14;;;;;;;35.05;21.23;;;;;;;;;;5022282;28;20375;-86
2022/02/03 21:51:45;;;;;;;32.95;21.30;;;;;;;;;;5023370;28;20046;-86
2022/02/03 21:54:14;;;;;;;33.72;20.23;;;;;;;;;;5021199;28;20441;-88
2022/02/03 21:56:41;;;;;;;31.25;19.77;;;;;;;;;;5028283;28;20898;-88
2022/02/03 21:59:08;;;;;;;32.13;19.60;;;;;;;;;;5023746;28;20030;-88
2022/02/03 22:01:40;;;;;;;31.70;20.40;;;;;;;;;;5021990;28;20490;-87
2022/02/03 22:04:06;;;;;;;31.17;19.77;;;;;;;;;;5023254;28;20032;-83
2022/02/03 22:06:32;;;;;;;34.00;20.27;;;;;;;;;;5026507;28;20482;-89
2022/02/03 22:09:12;;;;;;;32.72;20.73;;;;;;;;;;5019457;28;20037;-83
2022/02/03 22:11:46;;;;;;;34.10;21.70;;;;;;;;;;5022980;28;20037;-83
2022/02/03 22:14:15;;;;;;;31.23;19.52;;;;;;;;;;5025903;28;20520;-82
2022/02/03 22:16:46;;;;;;;33.72;20.27;;;;;;;;;;5021629;28;20803;-86
2022/02/03 22:19:15;;;;;;;32.35;20.73;;;;;;;;;;5027748;28;20037;-83
2022/02/03 22:22:03;;;;;;;35.75;21.48;;;;;;;;;;5026383;28;20072;-83
2022/02/03 22:24:38;;;;;;;33.30;20.45;;;;;;;;;;5026190;28;20163;-83
2022/02/03 22:46:39;;;;;;;35.75;20.85;;;;;;;;;;5045392;28;20044;-83
2022/02/03 22:49:07;;;;;;;35.08;21.33;;;;;;;;;;5030576;28;20481;-83
2022/02/03 22:51:34;;;;;;;33.33;20.15;;;;;;;;;;5045122;28;20112;-89
2022/02/03 22:54:00;;;;;;;32.05;20.45;;;;;;;;;;5043710;28;20047;-82
2022/02/03 22:56:25;;;;;;;35.40;21.95;;;;;;;;;;5029697;28;20029;-83
2022/02/03 23:01:34;;;;;;;35.45;20.35;;;;;;;;;;5048240;28;20504;-85
2022/02/03 23:04:00;;;;;;;33.22;20.40;;;;;;;;;;5030783;28;20100;-86
2022/02/03 23:06:26;;;;;;;34.58;20.83;;;;;;;;;;5028445;28;20025;-83
2022/02/03 23:08:56;;;;;;;31.40;19.65;;;;;;;;;;5027216;28;20035;-86
2022/02/03 23:14:05;;;;;;;32.25;20.42;;;;;;;;;;5050164;28;20032;-86
2022/02/03 23:19:34;;;;;;;30.98;20.45;;;;;;;;;;5046302;28;20091;-85
2022/02/03 23:21:52;;;;;;;31.30;19.75;;;;;;;;;;5046908;28;20564;-82
2022/02/03 23:24:20;;;;;;;33.45;20.77;;;;;;;;;;5033046;28;20034;-86
2022/02/03 23:26:51;;;;;;;35.15;22.23;;;;;;;;;;5048068;28;20108;-83
2022/02/03 23:29:21;;;;;;;34.22;21.52;;;;;;;;;;5050080;28;20029;-82
2022/02/03 23:32:00;;;;;;;33.83;21.45;;;;;;;;;;5031133;28;20029;-83
2022/02/03 23:34:26;;;;;;;30.70;18.98;;;;;;;;;;5047848;28;20040;-86
2022/02/03 23:36:51;;;;;;;29.83;19.60;;;;;;;;;;5027676;28;20024;-86
2022/02/03 23:39:28;;;;;;;34.28;21.88;;;;;;;;;;5029065;28;20033;-86
2022/02/03 23:44:41;;;;;;;33.38;20.88;;;;;;;;;;5050042;28;20025;-89
2022/02/03 23:50:55;;;;;;;32.60;20.45;;;;;;;;;;5047187;28;20063;-83
